createdAt,value
2022-08-14T00:00:55.464Z,21.80
2022-08-14T00:03:29.507Z,21.80
2022-08-14T00:06:00.208Z,21.80
2022-08-14T00:08:43.718Z,21.80
2022-08-14T00:11:13.415Z,21.70
2022-08-14T00:13:56.170Z,21.70
2022-08-14T00:16:41.590Z,21.70
2022-08-14T00:19:21.180Z,21.60
2022-08-14T00:21:52.669Z,21.60
2022-08-14T00:24:29.103Z,21.60
2022-08-14T00:27:02.002Z,21.60
2022-08-14T00:29:39.914Z,21.50
2022-08-14T00:32:53.155Z,21.50
2022-08-14T00:34:57.697Z,21.50
2022-08-14T00:37:25.168Z,21.50
2022-08-14T00:39:53.982Z,21.40
2022-08-14T00:42:56.054Z,21.40
2022-08-14T00:45:13.856Z,21.40
2022-08-14T00:47:47.477Z,21.30
2022-08-14T00:50:18.825Z,21.30
2022-08-14T00:52:53.363Z,21.30
2022-08-14T00:55:22.107Z,21.20
2022-08-14T00:58:10.858Z,21.20
2022-08-14T01:00:47.297Z,21.20
2022-08-14T01:06:18.705Z,21.20
2022-08-14T01:08:51.164Z,21.20
2022-08-14T01:11:24.737Z,21.20
2022-08-14T01:13:56.000Z,21.20
2022-08-14T01:16:31.645Z,21.10
2022-08-14T01:19:24.610Z,21.10
2022-08-14T01:21:53.345Z,21.20
2022-08-14T01:24:28.857Z,21.10
2022-08-14T01:27:00.820Z,21.10
2022-08-14T01:29:58.561Z,21.10
2022-08-14T01:32:22.809Z,21.10
2022-08-14T01:35:20.850Z,21.10
2022-08-14T01:37:54.590Z,21.10
2022-08-14T01:40:36.971Z,21.10
2022-08-14T01:43:22.194Z,21.10
2022-08-14T01:45:57.801Z,21.10
2022-08-14T01:48:37.314Z,21.10
2022-08-14T01:51:19.494Z,21.10
2022-08-14T01:53:55.484Z,21.10
2022-08-14T01:56:39.824Z,21.10
2022-08-14T01:59:37.846Z,21.10
2022-08-14T02:02:19.762Z,21.10
2022-08-14T02:04:57.163Z,21.10
2022-08-14T02:07:34.869Z,21.00
2022-08-14T02:10:15.807Z,21.00
2022-08-14T02:12:53.959Z,21.00
2022-08-14T02:15:21.882Z,21.00
2022-08-14T02:17:51.285Z,21.00
2022-08-14T02:20:23.749Z,21.00
2022-08-14T02:22:54.769Z,21.00
2022-08-14T02:25:24.007Z,20.90
2022-08-14T02:28:22.183Z,20.80
2022-08-14T02:30:48.218Z,20.90
2022-08-14T02:33:25.546Z,20.80
2022-08-14T02:37:02.759Z,20.70
2022-08-14T02:38:50.624Z,20.70
2022-08-14T02:41:18.451Z,20.60
2022-08-14T02:43:48.475Z,20.50
2022-08-14T02:46:20.785Z,20.50
2022-08-14T02:49:01.469Z,20.40
2022-08-14T02:51:38.336Z,20.40
2022-08-14T02:54:19.687Z,20.30
2022-08-14T02:57:13.968Z,20.30
2022-08-14T02:59:39.405Z,20.20
2022-08-14T03:02:33.534Z,20.20
2022-08-14T03:05:01.777Z,20.10
2022-08-14T03:07:29.664Z,20.10
2022-08-14T03:10:28.148Z,20.00
2022-08-14T03:12:46.859Z,20.00
2022-08-14T03:15:19.154Z,19.90
2022-08-14T03:17:57.876Z,19.90
2022-08-14T03:20:30.737Z,19.90
2022-08-14T03:23:04.647Z,19.90
2022-08-14T03:25:34.177Z,19.80
2022-08-14T03:28:14.724Z,19.70
2022-08-14T03:31:00.666Z,19.70
2022-08-14T03:33:37.924Z,19.60
2022-08-14T03:37:38.519Z,19.60
2022-08-14T03:39:12.832Z,19.60
2022-08-14T03:41:43.411Z,19.50
2022-08-14T03:45:19.679Z,19.50
2022-08-14T03:46:57.553Z,19.50
2022-08-14T03:49:28.421Z,19.50
2022-08-14T03:51:58.307Z,19.60
2022-08-14T03:54:28.640Z,19.60
2022-08-14T03:57:02.782Z,19.60
2022-08-14T03:59:35.268Z,19.60
2022-08-14T04:02:04.821Z,19.60
2022-08-14T04:04:51.448Z,19.70
2022-08-14T04:07:18.634Z,19.60
2022-08-14T04:09:45.768Z,19.60
2022-08-14T04:12:13.435Z,19.60
2022-08-14T04:14:40.841Z,19.60
2022-08-14T04:17:10.104Z,19.60
2022-08-14T04:19:38.136Z,19.60
2022-08-14T04:22:06.355Z,19.60
2022-08-14T04:24:37.791Z,19.60
2022-08-14T04:27:13.419Z,19.60
2022-08-14T04:29:45.439Z,19.60
2022-08-14T04:32:59.063Z,19.60
2022-08-14T04:35:01.729Z,19.60
2022-08-14T04:37:53.956Z,19.60
2022-08-14T04:40:40.461Z,19.60
2022-08-14T04:43:38.373Z,19.70
2022-08-14T04:46:56.761Z,19.70
2022-08-14T04:49:04.573Z,19.80
2022-08-14T04:51:46.265Z,19.80
2022-08-14T04:54:26.949Z,19.90
2022-08-14T04:56:56.356Z,20.00
2022-08-14T04:59:24.965Z,20.00
2022-08-14T05:01:56.868Z,20.10
2022-08-14T05:04:25.181Z,20.20
2022-08-14T05:06:55.202Z,20.20
2022-08-14T05:09:29.234Z,20.30
2022-08-14T05:13:11.030Z,20.40
2022-08-14T05:14:55.302Z,20.50
2022-08-14T05:17:31.951Z,20.60
2022-08-14T05:21:58.349Z,20.70
2022-08-14T05:22:59.881Z,20.80
2022-08-14T05:25:30.721Z,20.90
2022-08-14T05:28:11.286Z,21.10
2022-08-14T05:30:43.746Z,21.20
2022-08-14T05:33:13.134Z,21.50
2022-08-14T05:35:42.632Z,21.80
2022-08-14T05:38:22.264Z,21.90
2022-08-14T05:40:59.791Z,22.10
2022-08-14T05:43:40.648Z,22.20
2022-08-14T05:46:23.013Z,22.30
2022-08-14T05:48:57.256Z,22.40
2022-08-14T05:51:26.031Z,22.50
2022-08-14T05:54:01.367Z,22.50
2022-08-14T05:56:37.484Z,22.60
2022-08-14T05:59:05.585Z,22.70
2022-08-14T06:01:35.397Z,22.80
2022-08-14T06:04:04.483Z,22.90
2022-08-14T06:06:36.589Z,23.10
2022-08-14T06:09:09.900Z,23.10
2022-08-14T06:11:37.881Z,23.20
2022-08-14T06:14:12.426Z,23.30
2022-08-14T06:16:48.508Z,23.30
2022-08-14T06:19:18.472Z,23.40
2022-08-14T06:21:45.601Z,23.50
2022-08-14T06:24:18.613Z,23.50
2022-08-14T06:26:51.924Z,23.60
2022-08-14T06:29:25.176Z,23.70
2022-08-14T06:31:54.621Z,23.90
2022-08-14T06:35:04.237Z,24.10
2022-08-14T06:37:17.154Z,24.20
2022-08-14T06:39:44.567Z,24.40
2022-08-14T06:42:18.385Z,24.50
2022-08-14T06:45:02.197Z,24.70
2022-08-14T06:47:30.216Z,24.90
2022-08-14T06:49:58.195Z,25.10
2022-08-14T06:52:25.725Z,25.20
2022-08-14T06:54:52.816Z,25.40
2022-08-14T06:57:20.712Z,25.60
2022-08-14T06:59:49.940Z,25.70
2022-08-14T07:02:36.905Z,25.80
2022-08-14T07:05:29.234Z,25.90
2022-08-14T07:07:58.251Z,26.10
2022-08-14T07:10:25.784Z,26.20
2022-08-14T07:12:56.435Z,26.40
2022-08-14T07:15:30.167Z,26.50
2022-08-14T07:18:00.469Z,26.50
2022-08-14T07:20:31.257Z,26.60
2022-08-14T07:23:07.764Z,26.60
2022-08-14T07:25:38.216Z,26.70
2022-08-14T07:28:43.503Z,26.70
2022-08-14T07:31:12.889Z,26.90
2022-08-14T07:33:43.579Z,27.00
2022-08-14T07:36:27.611Z,27.10
2022-08-14T07:39:02.962Z,27.20
2022-08-14T07:41:31.420Z,27.30
2022-08-14T07:44:28.958Z,27.50
2022-08-14T07:46:49.858Z,27.70
2022-08-14T07:49:18.176Z,27.90
2022-08-14T07:51:49.454Z,28.00
2022-08-14T07:54:23.588Z,28.10
2022-08-14T07:57:11.938Z,28.30
2022-08-14T07:59:44.329Z,28.50
2022-08-14T08:02:20.412Z,28.70
2022-08-14T08:04:54.962Z,28.90
2022-08-14T08:07:30.221Z,29.10
2022-08-14T08:09:59.568Z,29.20
2022-08-14T08:12:30.880Z,29.40
2022-08-14T08:15:06.981Z,29.50
2022-08-14T08:17:53.146Z,29.60
2022-08-14T08:20:24.803Z,29.70
2022-08-14T08:23:06.049Z,29.80
2022-08-14T08:25:39.605Z,30.00
2022-08-14T08:28:25.041Z,30.10
2022-08-14T08:31:00.544Z,30.30
2022-08-14T08:33:37.194Z,30.40
2022-08-14T08:36:12.853Z,30.50
2022-08-14T08:39:17.196Z,30.50
2022-08-14T08:41:46.001Z,30.50
2022-08-14T08:44:32.341Z,30.50
2022-08-14T08:47:06.682Z,30.60
2022-08-14T08:49:58.971Z,30.60
2022-08-14T08:52:34.462Z,30.80
2022-08-14T08:55:05.048Z,30.90
2022-08-14T08:57:38.986Z,30.90
2022-08-14T09:00:25.101Z,31.00
2022-08-14T09:03:04.077Z,31.10
2022-08-14T09:05:33.644Z,31.30
2022-08-14T09:08:31.274Z,31.40
2022-08-14T09:11:19.837Z,31.50
2022-08-14T09:13:54.955Z,31.70
2022-08-14T09:16:27.094Z,31.90
2022-08-14T09:18:56.133Z,32.10
2022-08-14T09:21:25.093Z,32.20
2022-08-14T09:24:28.314Z,32.40
2022-08-14T09:26:49.283Z,32.50
2022-08-14T09:29:22.756Z,32.60
2022-08-14T09:31:57.336Z,32.70
2022-08-14T09:35:02.311Z,32.80
2022-08-14T09:37:40.456Z,32.90
2022-08-14T09:40:16.721Z,32.90
2022-08-14T09:43:20.088Z,33.00
2022-08-14T09:45:52.553Z,33.10
2022-08-14T09:48:29.367Z,33.10
2022-08-14T09:54:19.585Z,33.10
2022-08-14T09:56:43.887Z,33.20
2022-08-14T09:59:16.749Z,33.20
2022-08-14T10:01:52.360Z,33.30
2022-08-14T10:04:33.744Z,33.30
2022-08-14T10:07:08.484Z,33.20
2022-08-14T10:09:59.647Z,33.30
2022-08-14T10:12:47.730Z,33.40
2022-08-14T10:15:23.864Z,33.70
2022-08-14T10:18:03.861Z,33.80
2022-08-14T10:20:48.250Z,33.90
2022-08-14T10:23:20.511Z,33.90
2022-08-14T10:25:57.516Z,33.90
2022-08-14T10:28:51.647Z,33.90
2022-08-14T10:31:45.594Z,34.10
2022-08-14T10:34:19.012Z,34.10
2022-08-14T10:36:50.068Z,34.10
2022-08-14T10:39:30.044Z,34.20
2022-08-14T10:42:16.356Z,34.30
2022-08-14T10:44:49.177Z,34.40
2022-08-14T10:47:40.691Z,34.50
2022-08-14T10:50:12.122Z,34.60
2022-08-14T10:52:43.053Z,34.70
2022-08-14T10:55:20.987Z,34.90
2022-08-14T10:57:51.260Z,35.00
2022-08-14T11:00:29.442Z,35.10
2022-08-14T11:03:19.955Z,35.10
2022-08-14T11:06:12.889Z,35.20
2022-08-14T11:08:40.308Z,35.20
2022-08-14T11:11:08.288Z,35.30
2022-08-14T11:13:38.331Z,35.30
2022-08-14T11:16:05.584Z,35.40
2022-08-14T11:18:39.977Z,35.40
2022-08-14T11:21:09.477Z,35.20
2022-08-14T11:23:43.788Z,35.10
2022-08-14T11:26:13.724Z,35.00
2022-08-14T11:28:47.604Z,35.10
2022-08-14T11:31:23.641Z,35.30
2022-08-14T11:33:58.414Z,35.30
2022-08-14T11:36:57.063Z,35.40
2022-08-14T11:39:34.482Z,35.40
2022-08-14T11:42:57.320Z,35.60
2022-08-14T11:45:10.970Z,35.70
2022-08-14T11:47:43.888Z,35.90
2022-08-14T11:50:37.216Z,35.90
2022-08-14T11:53:05.188Z,36.00
2022-08-14T11:55:38.554Z,35.90
2022-08-14T11:58:12.059Z,36.00
2022-08-14T12:01:02.782Z,35.90
2022-08-14T12:03:51.407Z,35.80
2022-08-14T12:06:29.397Z,35.70
2022-08-14T12:09:14.964Z,35.70
2022-08-14T12:11:47.317Z,35.70
2022-08-14T12:14:34.759Z,35.70
2022-08-14T12:17:12.259Z,35.70
2022-08-14T12:19:51.143Z,35.70
2022-08-14T12:22:43.779Z,35.50
2022-08-14T12:25:20.929Z,35.30
2022-08-14T12:27:59.360Z,35.10
2022-08-14T12:30:43.692Z,35.00
2022-08-14T12:33:33.792Z,35.00
2022-08-14T12:36:05.585Z,35.00
2022-08-14T12:38:33.232Z,34.90
2022-08-14T12:41:06.521Z,34.90
2022-08-14T12:43:46.934Z,34.90
2022-08-14T12:46:27.331Z,34.90
2022-08-14T12:48:57.783Z,34.90
2022-08-14T12:51:27.045Z,35.00
2022-08-14T12:53:59.529Z,35.20
2022-08-14T12:56:32.914Z,35.30
2022-08-14T12:59:02.574Z,35.40
2022-08-14T13:01:56.715Z,35.30
2022-08-14T13:04:21.699Z,35.20
2022-08-14T13:06:51.486Z,35.20
2022-08-14T13:09:19.659Z,35.20
2022-08-14T13:11:58.951Z,35.20
2022-08-14T13:14:44.107Z,35.20
2022-08-14T13:17:12.956Z,35.20
2022-08-14T13:19:41.549Z,35.20
2022-08-14T13:22:28.859Z,35.20
2022-08-14T13:24:58.219Z,35.20
2022-08-14T13:27:27.460Z,35.20
2022-08-14T13:29:57.704Z,35.10
2022-08-14T13:32:28.797Z,35.00
2022-08-14T13:34:58.489Z,34.90
2022-08-14T13:37:27.925Z,34.70
2022-08-14T13:39:57.642Z,34.60
2022-08-14T13:42:30.508Z,34.60
2022-08-14T13:45:01.364Z,34.50
2022-08-14T13:47:30.492Z,34.50
2022-08-14T13:50:02.969Z,34.60
2022-08-14T13:52:59.250Z,34.70
2022-08-14T13:55:29.124Z,34.80
2022-08-14T13:58:04.023Z,34.90
2022-08-14T14:00:51.618Z,34.90
2022-08-14T14:03:22.589Z,34.90
2022-08-14T14:05:54.367Z,34.90
2022-08-14T14:08:43.195Z,34.90
2022-08-14T14:11:14.267Z,34.90
2022-08-14T14:13:45.879Z,34.90
2022-08-14T14:16:26.208Z,34.80
2022-08-14T14:19:08.986Z,34.60
2022-08-14T14:21:40.324Z,34.50
2022-08-14T14:24:08.250Z,34.50
2022-08-14T14:26:50.514Z,34.60
2022-08-14T14:29:26.329Z,34.70
2022-08-14T14:31:54.239Z,34.90
2022-08-14T14:34:30.019Z,35.00
2022-08-14T14:37:02.843Z,35.00
2022-08-14T14:39:31.617Z,35.00
2022-08-14T14:42:06.599Z,35.10
2022-08-14T14:44:40.686Z,35.00
2022-08-14T14:47:15.909Z,35.00
2022-08-14T14:49:55.288Z,35.00
2022-08-14T14:52:27.488Z,34.90
2022-08-14T14:54:59.194Z,34.90
2022-08-14T14:57:35.609Z,34.80
2022-08-14T15:00:19.808Z,34.70
2022-08-14T15:02:52.926Z,34.60
2022-08-14T15:05:28.449Z,34.60
2022-08-14T15:07:56.013Z,34.60
2022-08-14T15:10:27.364Z,34.70
2022-08-14T15:13:04.256Z,34.70
2022-08-14T15:15:37.404Z,34.70
2022-08-14T15:18:36.589Z,34.60
2022-08-14T15:21:02.722Z,34.60
2022-08-14T15:23:32.329Z,34.40
2022-08-14T15:26:23.899Z,34.30
2022-08-14T15:29:02.134Z,34.20
2022-08-14T15:31:32.727Z,34.10
2022-08-14T15:34:44.143Z,34.10
2022-08-14T15:36:58.636Z,34.00
2022-08-14T15:39:29.577Z,34.00
2022-08-14T15:42:02.907Z,34.00
2022-08-14T15:44:34.330Z,34.00
2022-08-14T15:47:07.253Z,34.00
2022-08-14T15:49:35.571Z,34.00
2022-08-14T15:52:04.315Z,34.00
2022-08-14T15:54:32.686Z,34.00
2022-08-14T15:57:09.007Z,33.90
2022-08-14T15:59:58.543Z,33.80
2022-08-14T16:02:27.811Z,33.70
2022-08-14T16:04:55.646Z,33.70
2022-08-14T16:07:25.243Z,33.60
2022-08-14T16:10:18.320Z,33.50
2022-08-14T16:12:54.600Z,33.50
2022-08-14T16:15:22.606Z,33.40
2022-08-14T16:17:52.980Z,33.40
2022-08-14T16:20:41.846Z,33.30
2022-08-14T16:23:11.823Z,33.20
2022-08-14T16:25:42.736Z,33.10
2022-08-14T16:28:27.158Z,33.00
2022-08-14T16:30:55.433Z,33.00
2022-08-14T16:33:27.835Z,33.00
2022-08-14T16:36:30.507Z,33.00
2022-08-14T16:39:06.444Z,32.90
2022-08-14T16:41:35.451Z,32.90
2022-08-14T16:44:22.147Z,32.80
2022-08-14T16:47:02.550Z,32.80
2022-08-14T16:49:50.537Z,32.80
2022-08-14T16:52:43.650Z,32.80
2022-08-14T16:55:08.517Z,32.80
2022-08-14T16:57:47.672Z,32.70
2022-08-14T17:00:43.566Z,32.70
2022-08-14T17:03:13.312Z,32.60
2022-08-14T17:05:46.714Z,32.60
2022-08-14T17:08:28.521Z,32.50
2022-08-14T17:11:10.963Z,32.40
2022-08-14T17:13:57.832Z,32.40
2022-08-14T17:16:37.374Z,32.30
2022-08-14T17:19:14.219Z,32.10
2022-08-14T17:21:47.148Z,32.00
2022-08-14T17:24:56.987Z,31.80
2022-08-14T17:27:06.855Z,31.80
2022-08-14T17:29:44.525Z,31.70
2022-08-14T17:35:10.027Z,31.50
2022-08-14T17:40:30.820Z,31.40
2022-08-14T17:43:02.818Z,31.40
2022-08-14T17:45:42.877Z,31.20
2022-08-14T17:49:14.753Z,31.20
2022-08-14T17:51:23.798Z,31.20
2022-08-14T17:54:03.417Z,31.10
2022-08-14T17:56:36.196Z,31.10
2022-08-14T17:59:07.250Z,31.00
2022-08-14T18:01:46.398Z,30.90
2022-08-14T18:04:28.109Z,30.90
2022-08-14T18:07:08.854Z,30.80
2022-08-14T18:09:57.121Z,30.70
2022-08-14T18:12:36.718Z,30.70
2022-08-14T18:15:16.598Z,30.60
2022-08-14T18:17:53.277Z,30.50
2022-08-14T18:21:42.104Z,30.40
2022-08-14T18:23:14.027Z,30.30
2022-08-14T18:25:54.519Z,30.20
2022-08-14T18:28:51.871Z,30.10
2022-08-14T18:31:43.540Z,30.10
2022-08-14T18:34:32.199Z,30.00
2022-08-14T18:37:14.404Z,29.90
2022-08-14T18:40:02.267Z,29.90
2022-08-14T18:42:34.650Z,29.80
2022-08-14T18:45:15.710Z,29.70
2022-08-14T18:51:06.891Z,29.60
2022-08-14T18:53:57.558Z,29.50
2022-08-14T18:56:57.263Z,29.50
2022-08-14T18:59:37.146Z,29.40
2022-08-14T19:02:30.260Z,29.30
2022-08-14T19:05:02.380Z,29.30
2022-08-14T19:07:33.946Z,29.20
2022-08-14T19:10:06.893Z,29.20
2022-08-14T19:12:53.204Z,29.10
2022-08-14T19:15:25.930Z,29.10
2022-08-14T19:18:14.839Z,29.00
2022-08-14T19:20:53.147Z,29.00
2022-08-14T19:23:40.565Z,29.00
2022-08-14T19:26:35.768Z,28.90
2022-08-14T19:29:37.845Z,28.80
2022-08-14T19:32:36.456Z,28.80
2022-08-14T19:35:14.930Z,28.70
2022-08-14T19:37:52.602Z,28.60
2022-08-14T19:40:42.881Z,28.60
2022-08-14T19:43:22.835Z,28.50
2022-08-14T19:46:38.175Z,28.40
2022-08-14T19:48:58.293Z,28.40
2022-08-14T19:51:32.557Z,28.30
2022-08-14T19:54:13.222Z,28.30
2022-08-14T19:56:45.893Z,28.20
2022-08-14T19:59:21.941Z,28.20
2022-08-14T20:01:54.764Z,28.10
2022-08-14T20:04:45.820Z,28.10
2022-08-14T20:07:56.238Z,28.10
2022-08-14T20:11:12.757Z,28.00
2022-08-14T20:13:32.187Z,28.00
2022-08-14T20:16:07.069Z,27.90
2022-08-14T20:18:51.760Z,27.80
2022-08-14T20:21:21.680Z,27.80
2022-08-14T20:23:50.028Z,27.70
2022-08-14T20:26:31.768Z,27.60
2022-08-14T20:29:05.297Z,27.60
2022-08-14T20:31:36.613Z,27.50
2022-08-14T20:34:06.412Z,27.40
2022-08-14T20:36:38.998Z,27.30
2022-08-14T20:39:15.642Z,27.30
2022-08-14T20:41:51.320Z,27.20
2022-08-14T20:44:43.438Z,27.20
2022-08-14T20:47:16.941Z,27.10
2022-08-14T20:49:44.102Z,27.10
2022-08-14T20:52:18.965Z,27.00
2022-08-14T20:54:51.397Z,26.90
2022-08-14T20:57:19.836Z,26.90
2022-08-14T20:59:53.235Z,26.80
2022-08-14T21:02:34.467Z,26.70
2022-08-14T21:05:17.081Z,26.70
2022-08-14T21:07:50.270Z,26.70
2022-08-14T21:10:36.100Z,26.60
2022-08-14T21:13:26.521Z,26.60
2022-08-14T21:15:57.401Z,26.50
2022-08-14T21:18:47.517Z,26.50
2022-08-14T21:21:20.595Z,26.40
2022-08-14T21:23:54.822Z,26.40
2022-08-14T21:26:50.783Z,26.40
2022-08-14T21:29:14.734Z,26.30
2022-08-14T21:31:43.316Z,26.30
2022-08-14T21:34:31.455Z,26.20
2022-08-14T21:37:08.890Z,26.20
2022-08-14T21:39:37.059Z,26.10
2022-08-14T21:42:06.143Z,26.00
2022-08-14T21:44:42.910Z,26.00
2022-08-14T21:47:13.313Z,25.90
2022-08-14T21:49:46.295Z,25.80
2022-08-14T21:52:51.795Z,25.80
2022-08-14T21:55:10.437Z,25.70
2022-08-14T21:58:45.313Z,25.70
2022-08-14T22:00:39.650Z,25.60
2022-08-14T22:03:17.206Z,25.60
2022-08-14T22:05:48.311Z,25.60
2022-08-14T22:08:17.703Z,25.60
2022-08-14T22:10:51.555Z,25.50
2022-08-14T22:13:24.805Z,25.50
2022-08-14T22:15:59.609Z,25.40
2022-08-14T22:18:29.979Z,25.40
2022-08-14T22:20:58.480Z,25.30
2022-08-14T22:23:26.420Z,25.20
2022-08-14T22:25:55.517Z,25.20
2022-08-14T22:28:33.446Z,25.20
2022-08-14T22:31:10.156Z,25.10
2022-08-14T22:33:39.518Z,25.00
2022-08-14T22:36:33.806Z,25.00
2022-08-14T22:39:10.842Z,25.00
2022-08-14T22:41:43.150Z,24.90
2022-08-14T22:44:15.131Z,24.90
2022-08-14T22:46:45.404Z,24.80
2022-08-14T22:49:16.152Z,24.80
2022-08-14T22:52:04.381Z,24.80
2022-08-14T22:54:53.813Z,24.80
2022-08-14T22:57:22.552Z,24.70
2022-08-14T22:59:50.353Z,24.70
2022-08-14T23:02:32.063Z,24.60
2022-08-14T23:05:04.941Z,24.60
2022-08-14T23:09:00.465Z,24.60
2022-08-14T23:10:32.913Z,24.60
2022-08-14T23:13:04.009Z,24.50
2022-08-14T23:15:34.341Z,24.50
2022-08-14T23:18:03.333Z,24.50
2022-08-14T23:20:36.364Z,24.50
2022-08-14T23:23:12.058Z,24.50
2022-08-14T23:25:59.840Z,24.40
2022-08-14T23:28:34.127Z,24.40
2022-08-14T23:31:34.583Z,24.40
2022-08-14T23:34:09.000Z,24.30
2022-08-14T23:36:53.359Z,24.30
2022-08-14T23:39:30.319Z,24.30
2022-08-14T23:42:08.724Z,24.30
2022-08-14T23:44:37.798Z,24.30
2022-08-14T23:47:12.094Z,24.20
2022-08-14T23:50:03.259Z,24.20
2022-08-14T23:52:55.861Z,24.20
2022-08-14T23:55:29.033Z,24.20
2022-08-14T23:57:57.918Z,24.20
